createdAt,value
2017-08-13T00:00:00.564Z,0
2017-08-13T00:01:00.589Z,0
2017-08-13T00:02:01.254Z,0
2017-08-13T00:03:00.968Z,0
2017-08-13T00:04:00.980Z,0
2017-08-13T00:05:00.707Z,0
2017-08-13T00:06:01.394Z,0
2017-08-13T00:07:00.762Z,0
2017-08-13T00:08:01.417Z,0
2017-08-13T00:09:01.125Z,0
2017-08-13T00:10:01.474Z,0
2017-08-13T00:11:01.482Z,0
2017-08-13T00:12:00.614Z,0
2017-08-13T00:13:01.547Z,0
2017-08-13T00:14:00.648Z,0
2017-08-13T00:15:00.968Z,0
2017-08-13T00:16:01.302Z,0
2017-08-13T00:17:01.039Z,0
2017-08-13T00:18:01.366Z,0
2017-08-13T00:19:01.416Z,0
2017-08-13T00:20:01.435Z,0
2017-08-13T00:21:01.701Z,0
2017-08-13T00:22:01.479Z,0
2017-08-13T00:23:01.823Z,0
2017-08-13T00:24:01.555Z,0
2017-08-13T00:25:01.254Z,0
2017-08-13T00:26:01.841Z,0
2017-08-13T00:27:01.624Z,0
2017-08-13T00:28:01.331Z,0
2017-08-13T00:29:01.667Z,0
2017-08-13T00:30:01.697Z,0
2017-08-13T00:31:01.714Z,0
2017-08-13T00:32:01.755Z,0
2017-08-13T00:33:01.473Z,0
2017-08-13T00:34:02.115Z,0
2017-08-13T00:35:02.141Z,0
2017-08-13T00:36:01.797Z,0
2017-08-13T00:37:01.574Z,0
2017-08-13T00:38:01.903Z,0
2017-08-13T00:39:01.648Z,0
2017-08-13T00:40:01.977Z,0
2017-08-13T00:41:02.302Z,0
2017-08-13T00:42:02.345Z,0
2017-08-13T00:43:01.424Z,0
2017-08-13T00:44:02.069Z,0
2017-08-13T00:45:02.094Z,0
2017-08-13T00:46:02.140Z,0
2017-08-13T00:47:02.474Z,0
2017-08-13T00:48:02.201Z,0
2017-08-13T00:49:02.206Z,0
2017-08-13T00:50:02.237Z,0
2017-08-13T00:51:02.837Z,0
2017-08-13T00:52:02.606Z,0
2017-08-13T00:53:02.315Z,0
2017-08-13T00:54:02.356Z,0
2017-08-13T00:55:01.760Z,0
2017-08-13T00:56:02.394Z,0
2017-08-13T00:57:02.750Z,0
2017-08-13T00:58:02.446Z,0
2017-08-13T00:59:02.794Z,0
2017-08-13T01:00:02.813Z,0
2017-08-13T01:01:03.108Z,0
2017-08-13T01:02:02.882Z,0
2017-08-13T01:03:02.609Z,0
2017-08-13T01:04:02.939Z,0
2017-08-13T01:05:02.337Z,0
2017-08-13T01:06:02.302Z,0
2017-08-13T01:07:02.402Z,0
2017-08-13T01:08:02.731Z,0
2017-08-13T01:09:02.752Z,0
2017-08-13T01:10:03.096Z,0
2017-08-13T01:11:03.443Z,0
2017-08-13T01:12:02.531Z,0
2017-08-13T01:13:02.551Z,0
2017-08-13T01:14:02.583Z,0
2017-08-13T01:15:03.235Z,0
2017-08-13T01:16:03.518Z,0
2017-08-13T01:17:03.289Z,0
2017-08-13T01:18:03.006Z,0
2017-08-13T01:19:02.078Z,0
2017-08-13T01:20:03.376Z,0
2017-08-13T01:21:03.337Z,0
2017-08-13T01:22:03.423Z,0
2017-08-13T01:23:03.450Z,0
2017-08-13T01:24:02.852Z,0
2017-08-13T01:25:03.509Z,0
2017-08-13T01:26:03.201Z,0
2017-08-13T01:27:02.941Z,0
2017-08-13T01:28:02.952Z,0
2017-08-13T01:29:02.684Z,0
2017-08-13T01:30:03.327Z,0
2017-08-13T01:31:03.604Z,0
2017-08-13T01:32:03.074Z,0
2017-08-13T01:33:03.097Z,0
2017-08-13T01:34:03.435Z,0
2017-08-13T01:35:03.464Z,0
2017-08-13T01:36:03.792Z,0
2017-08-13T01:37:03.205Z,0
2017-08-13T01:38:03.543Z,0
2017-08-13T01:39:03.580Z,0
2017-08-13T01:40:03.924Z,0
2017-08-13T01:41:03.619Z,0
2017-08-13T01:42:03.657Z,0
2017-08-13T01:43:04.003Z,0
2017-08-13T01:44:03.387Z,0
2017-08-13T01:45:03.729Z,0
2017-08-13T01:46:03.072Z,0
2017-08-13T01:47:04.102Z,0
2017-08-13T01:48:03.823Z,0
2017-08-13T01:49:03.539Z,0
2017-08-13T01:50:03.551Z,0
2017-08-13T01:51:04.512Z,0
2017-08-13T01:52:03.630Z,0
2017-08-13T01:53:04.273Z,0
2017-08-13T01:54:03.979Z,0
2017-08-13T01:55:04.324Z,0
2017-08-13T01:56:04.027Z,0
2017-08-13T01:57:03.416Z,0
2017-08-13T01:58:04.082Z,0
2017-08-13T01:59:04.413Z,0
2017-08-13T02:00:03.831Z,0
2017-08-13T02:01:04.495Z,0
2017-08-13T02:02:04.178Z,0
2017-08-13T02:03:03.907Z,0
2017-08-13T02:04:04.242Z,0
2017-08-13T02:05:03.653Z,0
2017-08-13T02:06:03.992Z,0
2017-08-13T02:07:04.577Z,0
2017-08-13T02:08:04.357Z,0
2017-08-13T02:09:04.063Z,0
2017-08-13T02:10:04.719Z,0
2017-08-13T02:11:04.127Z,0
2017-08-13T02:12:04.775Z,0
2017-08-13T02:13:04.489Z,0
2017-08-13T02:14:04.538Z,0
2017-08-13T02:15:04.543Z,0
2017-08-13T02:16:04.873Z,0
2017-08-13T02:17:04.643Z,0
2017-08-13T02:18:04.938Z,0
2017-08-13T02:19:04.975Z,0
2017-08-13T02:20:04.675Z,0
2017-08-13T02:21:04.702Z,0
2017-08-13T02:22:04.678Z,0
2017-08-13T02:23:05.086Z,0
2017-08-13T02:24:04.483Z,0
2017-08-13T02:25:05.128Z,0
2017-08-13T02:26:04.532Z,0
2017-08-13T02:27:05.469Z,0
2017-08-13T02:28:04.903Z,0
2017-08-13T02:29:04.294Z,0
2017-08-13T02:30:04.959Z,0
2017-08-13T02:31:04.677Z,0
2017-08-13T02:32:05.254Z,0
2017-08-13T02:33:04.735Z,0
2017-08-13T02:34:04.755Z,0
2017-08-13T02:35:05.089Z,0
2017-08-13T02:36:05.420Z,0
2017-08-13T02:37:04.877Z,0
2017-08-13T02:38:05.500Z,0
2017-08-13T02:39:05.518Z,0
2017-08-13T02:40:05.224Z,0
2017-08-13T02:41:05.552Z,0
2017-08-13T02:42:05.230Z,0
2017-08-13T02:43:05.306Z,0
2017-08-13T02:44:05.330Z,0
2017-08-13T02:45:05.053Z,0
2017-08-13T02:46:05.386Z,0
2017-08-13T02:47:05.658Z,0
2017-08-13T02:48:04.846Z,0
2017-08-13T02:49:05.493Z,0
2017-08-13T02:50:05.494Z,0
2017-08-13T02:51:05.832Z,0
2017-08-13T02:52:06.161Z,0
2017-08-13T02:53:05.261Z,0
2017-08-13T02:54:05.282Z,0
2017-08-13T02:55:05.627Z,0
2017-08-13T02:56:05.647Z,0
2017-08-13T02:57:06.029Z,0
2017-08-13T02:58:06.016Z,0
2017-08-13T02:59:05.726Z,0
2017-08-13T03:00:06.071Z,0
2017-08-13T03:01:05.476Z,0
2017-08-13T03:02:06.071Z,0
2017-08-13T03:03:05.841Z,0
2017-08-13T03:04:05.254Z,0
2017-08-13T03:05:05.584Z,0
2017-08-13T03:06:05.928Z,0
2017-08-13T03:07:06.213Z,0
2017-08-13T03:08:06.280Z,0
2017-08-13T03:09:05.699Z,0
2017-08-13T03:10:06.032Z,0
2017-08-13T03:11:06.056Z,0
2017-08-13T03:12:06.392Z,0
2017-08-13T03:13:06.106Z,0
2017-08-13T03:14:05.818Z,0
2017-08-13T03:15:05.847Z,0
2017-08-13T03:16:05.564Z,0
2017-08-13T03:17:05.897Z,0
2017-08-13T03:18:06.246Z,0
2017-08-13T03:19:06.594Z,0
2017-08-13T03:20:05.995Z,0
2017-08-13T03:21:06.643Z,0
2017-08-13T03:22:06.294Z,0
2017-08-13T03:23:06.058Z,0
2017-08-13T03:24:06.090Z,0
2017-08-13T03:25:05.818Z,0
2017-08-13T03:26:06.464Z,0
2017-08-13T03:27:07.051Z,0
2017-08-13T03:28:06.518Z,0
2017-08-13T03:29:06.532Z,0
2017-08-13T03:30:06.887Z,0
2017-08-13T03:31:06.005Z,0
2017-08-13T03:32:07.197Z,0
2017-08-13T03:33:06.640Z,0
2017-08-13T03:34:06.665Z,0
2017-08-13T03:35:06.395Z,0
2017-08-13T03:36:06.416Z,0
2017-08-13T03:37:07.373Z,0
2017-08-13T03:38:07.103Z,0
2017-08-13T03:39:06.190Z,0
2017-08-13T03:40:06.839Z,0
2017-08-13T03:41:06.885Z,0
2017-08-13T03:42:07.160Z,0
2017-08-13T03:43:06.925Z,0
2017-08-13T03:44:07.250Z,0
2017-08-13T03:45:07.285Z,0
2017-08-13T03:46:06.690Z,0
2017-08-13T03:47:07.284Z,0
2017-08-13T03:48:07.365Z,0
2017-08-13T03:49:07.084Z,0
2017-08-13T03:50:06.818Z,0
2017-08-13T03:51:07.135Z,0
2017-08-13T03:52:07.153Z,0
2017-08-13T03:53:06.878Z,0
2017-08-13T03:54:07.213Z,0
2017-08-13T03:55:06.930Z,0
2017-08-13T03:56:06.955Z,0
2017-08-13T03:57:07.291Z,0
2017-08-13T03:58:07.335Z,0
2017-08-13T03:59:07.041Z,0
2017-08-13T04:00:06.446Z,0
2017-08-13T04:01:07.727Z,0
2017-08-13T04:02:07.997Z,0
2017-08-13T04:03:07.462Z,0
2017-08-13T04:04:06.865Z,0
2017-08-13T04:05:07.202Z,0
2017-08-13T04:06:07.559Z,0
2017-08-13T04:07:07.871Z,0
2017-08-13T04:08:07.284Z,0
2017-08-13T04:09:07.622Z,0
2017-08-13T04:10:07.666Z,0
2017-08-13T04:11:07.991Z,0
2017-08-13T04:12:07.092Z,0
2017-08-13T04:13:08.293Z,0
2017-08-13T04:14:07.761Z,0
2017-08-13T04:15:07.478Z,0
2017-08-13T04:16:07.807Z,0
2017-08-13T04:17:07.537Z,0
2017-08-13T04:18:08.125Z,0
2017-08-13T04:19:07.593Z,0
2017-08-13T04:20:07.918Z,0
2017-08-13T04:21:08.268Z,0
2017-08-13T04:22:07.976Z,0
2017-08-13T04:23:08.351Z,0
2017-08-13T04:24:08.033Z,0
2017-08-13T04:25:08.050Z,0
2017-08-13T04:26:07.779Z,0
2017-08-13T04:27:07.808Z,0
2017-08-13T04:28:08.069Z,0
2017-08-13T04:29:08.164Z,0
2017-08-13T04:30:07.875Z,0
2017-08-13T04:31:08.210Z,0
2017-08-13T04:32:08.235Z,0
2017-08-13T04:33:08.565Z,0
2017-08-13T04:34:08.610Z,0
2017-08-13T04:35:08.642Z,0
2017-08-13T04:36:08.034Z,0
2017-08-13T04:37:07.754Z,0
2017-08-13T04:38:09.012Z,0
2017-08-13T04:39:08.765Z,0
2017-08-13T04:40:08.146Z,0
2017-08-13T04:41:08.180Z,0
2017-08-13T04:42:08.523Z,0
2017-08-13T04:43:09.110Z,0
2017-08-13T04:44:08.893Z,0
2017-08-13T04:45:08.594Z,0
2017-08-13T04:46:08.618Z,0
2017-08-13T04:47:08.651Z,0
2017-08-13T04:48:09.000Z,0
2017-08-13T04:49:08.400Z,0
2017-08-13T04:50:08.737Z,0
2017-08-13T04:51:08.441Z,0
2017-08-13T04:52:08.487Z,0
2017-08-13T04:53:09.051Z,0
2017-08-13T04:54:08.521Z,0
2017-08-13T04:55:08.857Z,0
2017-08-13T04:56:08.882Z,0
2017-08-13T04:57:08.919Z,0
2017-08-13T04:58:09.516Z,0
2017-08-13T04:59:08.685Z,0
2017-08-13T05:00:09.002Z,0
2017-08-13T05:01:09.331Z,0
2017-08-13T05:02:08.750Z,0
2017-08-13T05:03:09.382Z,0
2017-08-13T05:04:08.792Z,0
2017-08-13T05:05:09.136Z,0
2017-08-13T05:06:09.157Z,0
2017-08-13T05:07:09.189Z,0
2017-08-13T05:08:09.512Z,0
2017-08-13T05:09:09.268Z,0
2017-08-13T05:10:09.262Z,0
2017-08-13T05:11:08.674Z,0
2017-08-13T05:12:09.639Z,0
2017-08-13T05:13:09.680Z,0
2017-08-13T05:14:09.708Z,0
2017-08-13T05:15:08.469Z,0
2017-08-13T05:16:08.811Z,0
2017-08-13T05:17:09.143Z,0
2017-08-13T05:18:10.104Z,0
2017-08-13T05:19:09.513Z,0
2017-08-13T05:20:09.548Z,0
2017-08-13T05:21:09.250Z,0
2017-08-13T05:22:09.900Z,0
2017-08-13T05:23:10.248Z,0
2017-08-13T05:24:09.341Z,0
2017-08-13T05:25:09.677Z,0
2017-08-13T05:26:09.714Z,0
2017-08-13T05:27:09.740Z,0
2017-08-13T05:28:09.700Z,0
2017-08-13T05:29:09.465Z,0
2017-08-13T05:30:09.502Z,0
2017-08-13T05:31:09.834Z,0
2017-08-13T05:32:09.863Z,0
2017-08-13T05:33:09.879Z,0
2017-08-13T05:34:09.929Z,5
2017-08-13T05:35:09.953Z,5
2017-08-13T05:36:09.978Z,5
2017-08-13T05:37:09.691Z,5
2017-08-13T05:38:10.387Z,5
2017-08-13T05:39:09.769Z,5
2017-08-13T05:40:09.773Z,5
2017-08-13T05:41:09.797Z,5
2017-08-13T05:42:10.143Z,5
2017-08-13T05:43:10.403Z,5
2017-08-13T05:44:10.201Z,5
2017-08-13T05:45:10.217Z,5
2017-08-13T05:46:10.259Z,5
2017-08-13T05:47:10.277Z,0
2017-08-13T05:48:10.287Z,0
2017-08-13T05:49:10.339Z,0
2017-08-13T05:50:10.352Z,0
2017-08-13T05:51:10.090Z,0
2017-08-13T05:52:10.709Z,0
2017-08-13T05:53:11.003Z,0
2017-08-13T05:54:10.466Z,0
2017-08-13T05:55:10.180Z,0
2017-08-13T05:56:10.214Z,0
2017-08-13T05:57:10.542Z,0
2017-08-13T05:58:10.810Z,0
2017-08-13T05:59:10.592Z,0
2017-08-13T06:00:10.953Z,0
2017-08-13T06:01:10.658Z,0
2017-08-13T06:02:10.688Z,0
2017-08-13T06:03:10.658Z,0
2017-08-13T06:04:11.049Z,0
2017-08-13T06:05:10.764Z,0
2017-08-13T06:06:10.464Z,0
2017-08-13T06:07:10.195Z,0
2017-08-13T06:08:09.911Z,0
2017-08-13T06:09:10.855Z,0
2017-08-13T06:10:10.600Z,0
2017-08-13T06:11:10.925Z,0
2017-08-13T06:12:10.947Z,0
2017-08-13T06:13:10.695Z,0
2017-08-13T06:14:11.261Z,0
2017-08-13T06:15:11.356Z,0
2017-08-13T06:16:10.750Z,0
2017-08-13T06:17:11.403Z,0
2017-08-13T06:18:11.430Z,0
2017-08-13T06:19:11.492Z,0
2017-08-13T06:20:11.480Z,5
2017-08-13T06:21:11.190Z,5
2017-08-13T06:22:11.531Z,5
2017-08-13T06:23:11.579Z,5
2017-08-13T06:24:11.547Z,5
2017-08-13T06:25:10.993Z,5
2017-08-13T06:26:11.338Z,5
2017-08-13T06:27:11.365Z,5
2017-08-13T06:28:11.382Z,5
2017-08-13T06:29:11.360Z,5
2017-08-13T06:30:11.124Z,5
2017-08-13T06:31:11.464Z,5
2017-08-13T06:32:11.198Z,5
2017-08-13T06:33:11.835Z,10
2017-08-13T06:34:11.843Z,10
2017-08-13T06:35:11.581Z,10
2017-08-13T06:36:11.289Z,10
2017-08-13T06:37:11.314Z,10
2017-08-13T06:38:11.647Z,10
2017-08-13T06:39:11.972Z,15
2017-08-13T06:40:12.017Z,15
2017-08-13T06:41:11.744Z,15
2017-08-13T06:42:12.069Z,15
2017-08-13T06:43:11.483Z,15
2017-08-13T06:44:11.812Z,15
2017-08-13T06:45:12.149Z,15
2017-08-13T06:46:11.266Z,15
2017-08-13T06:47:11.590Z,15
2017-08-13T06:48:11.642Z,10
2017-08-13T06:49:11.940Z,10
2017-08-13T06:50:12.300Z,10
2017-08-13T06:51:12.000Z,10
2017-08-13T06:52:12.348Z,10
2017-08-13T06:53:11.759Z,10
2017-08-13T06:54:12.386Z,15
2017-08-13T06:55:12.429Z,15
2017-08-13T06:56:11.829Z,15
2017-08-13T06:57:12.171Z,15
2017-08-13T06:58:12.513Z,15
2017-08-13T06:59:12.527Z,15
2017-08-13T07:00:12.270Z,25
2017-08-13T07:01:12.597Z,25
2017-08-13T07:02:12.306Z,30
2017-08-13T07:03:12.335Z,30
2017-08-13T07:04:12.669Z,35
2017-08-13T07:05:12.078Z,35
2017-08-13T07:06:12.117Z,35
2017-08-13T07:07:12.437Z,35
2017-08-13T07:08:12.180Z,35
2017-08-13T07:09:13.120Z,35
2017-08-13T07:10:12.523Z,35
2017-08-13T07:11:11.934Z,35
2017-08-13T07:12:11.654Z,40
2017-08-13T07:13:12.335Z,35
2017-08-13T07:14:13.307Z,35
2017-08-13T07:15:12.661Z,30
2017-08-13T07:16:12.402Z,30
2017-08-13T07:17:12.406Z,30
2017-08-13T07:18:12.445Z,30
2017-08-13T07:19:13.069Z,25
2017-08-13T07:20:12.493Z,25
2017-08-13T07:21:13.157Z,25
2017-08-13T07:22:12.546Z,25
2017-08-13T07:23:12.875Z,25
2017-08-13T07:24:13.159Z,25
2017-08-13T07:25:12.932Z,25
2017-08-13T07:26:12.975Z,30
2017-08-13T07:27:12.362Z,30
2017-08-13T07:28:13.339Z,30
2017-08-13T07:29:12.719Z,40
2017-08-13T07:30:13.384Z,40
2017-08-13T07:31:13.415Z,50
2017-08-13T07:32:12.818Z,55
2017-08-13T07:33:13.158Z,45
2017-08-13T07:34:13.452Z,40
2017-08-13T07:35:13.206Z,45
2017-08-13T07:36:12.619Z,35
2017-08-13T07:37:13.578Z,40
2017-08-13T07:38:13.295Z,45
2017-08-13T07:39:13.568Z,40
2017-08-13T07:40:13.352Z,40
2017-08-13T07:41:13.382Z,45
2017-08-13T07:42:13.417Z,40
2017-08-13T07:43:13.465Z,40
2017-08-13T07:44:13.759Z,40
2017-08-13T07:45:13.483Z,35
2017-08-13T07:46:13.201Z,30
2017-08-13T07:47:13.238Z,25
2017-08-13T07:48:13.595Z,20
2017-08-13T07:49:13.852Z,25
2017-08-13T07:50:13.618Z,35
2017-08-13T07:51:13.337Z,30
2017-08-13T07:52:13.370Z,25
2017-08-13T07:53:13.731Z,30
2017-08-13T07:54:13.983Z,30
2017-08-13T07:55:13.761Z,40
2017-08-13T07:56:13.790Z,55
2017-08-13T07:57:13.510Z,50
2017-08-13T07:58:13.842Z,45
2017-08-13T07:59:13.858Z,55
2017-08-13T08:00:13.580Z,55
2017-08-13T08:01:14.236Z,50
2017-08-13T08:02:13.961Z,50
2017-08-13T08:03:14.287Z,35
2017-08-13T08:04:14.631Z,35
2017-08-13T08:05:14.042Z,35
2017-08-13T08:06:14.064Z,45
2017-08-13T08:07:14.102Z,40
2017-08-13T08:08:13.498Z,35
2017-08-13T08:09:14.401Z,35
2017-08-13T08:10:14.498Z,45
2017-08-13T08:11:13.583Z,35
2017-08-13T08:12:14.230Z,40
2017-08-13T08:13:14.262Z,40
2017-08-13T08:14:13.348Z,50
2017-08-13T08:15:14.384Z,45
2017-08-13T08:16:14.340Z,40
2017-08-13T08:17:14.377Z,35
2017-08-13T08:18:14.403Z,30
2017-08-13T08:19:14.439Z,30
2017-08-13T08:20:14.392Z,30
2017-08-13T08:21:14.165Z,30
2017-08-13T08:22:14.818Z,35
2017-08-13T08:23:14.534Z,35
2017-08-13T08:24:14.875Z,40
2017-08-13T08:25:14.260Z,40
2017-08-13T08:26:14.333Z,40
2017-08-13T08:27:14.648Z,35
2017-08-13T08:28:14.978Z,35
2017-08-13T08:29:15.008Z,30
2017-08-13T08:30:15.334Z,40
2017-08-13T08:31:14.757Z,40
2017-08-13T08:32:14.468Z,45
2017-08-13T08:33:14.843Z,50
2017-08-13T08:34:15.154Z,50
2017-08-13T08:35:15.428Z,50
2017-08-13T08:36:15.196Z,55
2017-08-13T08:37:14.913Z,50
2017-08-13T08:38:15.286Z,50
2017-08-13T08:39:14.980Z,40
2017-08-13T08:40:14.331Z,35
2017-08-13T08:41:15.028Z,40
2017-08-13T08:42:14.774Z,40
2017-08-13T08:43:15.086Z,50
2017-08-13T08:44:14.843Z,45
2017-08-13T08:45:14.816Z,55
2017-08-13T08:46:14.865Z,50
2017-08-13T08:47:15.194Z,50
2017-08-13T08:48:14.914Z,55
2017-08-13T08:49:15.250Z,65
2017-08-13T08:50:15.268Z,70
2017-08-13T08:51:15.621Z,80
2017-08-13T08:52:15.341Z,75
2017-08-13T08:53:15.058Z,70
2017-08-13T08:54:15.712Z,65
2017-08-13T08:55:15.773Z,60
2017-08-13T08:56:15.136Z,65
2017-08-13T08:57:15.478Z,65
2017-08-13T08:58:15.226Z,65
2017-08-13T08:59:15.539Z,65
2017-08-13T09:00:16.164Z,70
2017-08-13T09:01:15.589Z,70
2017-08-13T09:02:15.936Z,65
2017-08-13T09:03:15.964Z,60
2017-08-13T09:04:15.362Z,60
2017-08-13T09:05:15.635Z,60
2017-08-13T09:06:15.751Z,55
2017-08-13T09:07:16.077Z,55
2017-08-13T09:08:15.478Z,60
2017-08-13T09:09:16.130Z,55
2017-08-13T09:10:16.143Z,50
2017-08-13T09:11:16.217Z,50
2017-08-13T09:12:16.203Z,50
2017-08-13T09:13:15.299Z,40
2017-08-13T09:14:15.969Z,55
2017-08-13T09:15:16.288Z,50
2017-08-13T09:16:16.005Z,55
2017-08-13T09:17:16.353Z,50
2017-08-13T09:18:16.074Z,60
2017-08-13T09:19:16.092Z,70
2017-08-13T09:20:16.728Z,75
2017-08-13T09:21:15.837Z,75
2017-08-13T09:22:16.178Z,75
2017-08-13T09:23:16.198Z,70
2017-08-13T09:24:16.235Z,60
2017-08-13T09:25:16.623Z,60
2017-08-13T09:26:16.288Z,60
2017-08-13T09:27:16.345Z,65
2017-08-13T09:28:16.662Z,70
2017-08-13T09:29:16.691Z,80
2017-08-13T09:30:16.703Z,70
2017-08-13T09:31:15.808Z,75
2017-08-13T09:32:16.456Z,65
2017-08-13T09:33:16.803Z,60
2017-08-13T09:34:16.223Z,60
2017-08-13T09:35:16.528Z,60
2017-08-13T09:36:16.260Z,55
2017-08-13T09:37:16.613Z,55
2017-08-13T09:38:16.322Z,60
2017-08-13T09:39:16.662Z,65
2017-08-13T09:40:16.996Z,65
2017-08-13T09:41:17.037Z,75
2017-08-13T09:42:17.062Z,80
2017-08-13T09:43:16.782Z,75
2017-08-13T09:44:16.795Z,70
2017-08-13T09:45:16.772Z,70
2017-08-13T09:46:16.547Z,70
2017-08-13T09:47:16.575Z,70
2017-08-13T09:48:16.904Z,70
2017-08-13T09:49:16.627Z,75
2017-08-13T09:50:17.535Z,70
2017-08-13T09:51:16.696Z,60
2017-08-13T09:52:16.712Z,50
2017-08-13T09:53:16.744Z,55
2017-08-13T09:54:17.087Z,55
2017-08-13T09:55:17.092Z,55
2017-08-13T09:56:17.135Z,60
2017-08-13T09:57:17.491Z,65
2017-08-13T09:58:16.908Z,65
2017-08-13T09:59:17.534Z,50
2017-08-13T10:00:17.234Z,50
2017-08-13T10:01:16.978Z,65
2017-08-13T10:02:17.617Z,70
2017-08-13T10:03:17.645Z,65
2017-08-13T10:04:17.057Z,60
2017-08-13T10:05:17.691Z,50
2017-08-13T10:06:17.736Z,40
2017-08-13T10:07:17.761Z,40
2017-08-13T10:08:17.475Z,35
2017-08-13T10:09:17.506Z,35
2017-08-13T10:10:17.830Z,35
2017-08-13T10:11:17.562Z,30
2017-08-13T10:12:17.585Z,35
2017-08-13T10:13:17.932Z,40
2017-08-13T10:14:17.326Z,35
2017-08-13T10:15:17.346Z,35
2017-08-13T10:16:17.197Z,30
2017-08-13T10:17:18.039Z,30
2017-08-13T10:18:17.514Z,40
2017-08-13T10:19:17.477Z,35
2017-08-13T10:20:18.106Z,35
2017-08-13T10:21:17.601Z,35
2017-08-13T10:22:17.869Z,35
2017-08-13T10:23:17.904Z,35
2017-08-13T10:24:17.618Z,30
2017-08-13T10:25:18.210Z,30
2017-08-13T10:26:18.308Z,35
2017-08-13T10:27:18.000Z,50
2017-08-13T10:28:17.717Z,50
2017-08-13T10:29:18.069Z,45
2017-08-13T10:30:18.717Z,40
2017-08-13T10:31:18.439Z,45
2017-08-13T10:32:18.155Z,40
2017-08-13T10:33:17.864Z,35
2017-08-13T10:34:18.211Z,40
2017-08-13T10:35:18.847Z,40
2017-08-13T10:36:18.582Z,45
2017-08-13T10:37:18.299Z,55
2017-08-13T10:38:18.633Z,60
2017-08-13T10:39:18.052Z,60
2017-08-13T10:40:18.069Z,60
2017-08-13T10:41:18.707Z,80
2017-08-13T10:42:18.436Z,75
2017-08-13T10:43:18.143Z,70
2017-08-13T10:44:18.801Z,85
2017-08-13T10:45:18.520Z,95
2017-08-13T10:46:19.127Z,115
2017-08-13T10:47:18.270Z,120
2017-08-13T10:48:18.918Z,105
2017-08-13T10:49:18.629Z,90
2017-08-13T10:50:18.658Z,85
2017-08-13T10:51:18.672Z,90
2017-08-13T10:52:18.393Z,95
2017-08-13T10:53:18.741Z,95
2017-08-13T10:54:18.766Z,105
2017-08-13T10:55:19.122Z,100
2017-08-13T10:56:18.821Z,85
2017-08-13T10:57:18.545Z,65
2017-08-13T10:58:18.880Z,50
2017-08-13T10:59:18.598Z,45
2017-08-13T11:00:18.943Z,40
2017-08-13T11:01:19.226Z,35
2017-08-13T11:02:18.996Z,30
2017-08-13T11:03:19.022Z,30
2017-08-13T11:04:18.741Z,30
2017-08-13T11:05:18.775Z,30
2017-08-13T11:06:19.134Z,30
2017-08-13T11:07:19.137Z,30
2017-08-13T11:08:18.865Z,30
2017-08-13T11:09:18.894Z,25
2017-08-13T11:10:19.221Z,20
2017-08-13T11:11:19.238Z,20
2017-08-13T11:12:19.299Z,25
2017-08-13T11:13:19.613Z,25
2017-08-13T11:14:19.338Z,30
2017-08-13T11:15:19.054Z,35
2017-08-13T11:16:19.380Z,35
2017-08-13T11:17:19.736Z,40
2017-08-13T11:18:19.460Z,45
2017-08-13T11:19:19.481Z,50
2017-08-13T11:20:19.195Z,45
2017-08-13T11:21:19.480Z,40
2017-08-13T11:22:19.564Z,45
2017-08-13T11:23:19.589Z,50
2017-08-13T11:24:19.617Z,50
2017-08-13T11:25:19.646Z,45
2017-08-13T11:26:19.988Z,35
2017-08-13T11:27:19.711Z,35
2017-08-13T11:28:19.721Z,30
2017-08-13T11:29:19.757Z,35
2017-08-13T11:30:20.109Z,30
2017-08-13T11:31:20.448Z,30
2017-08-13T11:32:20.152Z,40
2017-08-13T11:33:20.193Z,60
2017-08-13T11:34:19.589Z,85
2017-08-13T11:35:19.301Z,75
2017-08-13T11:36:20.263Z,65
2017-08-13T11:37:19.987Z,60
2017-08-13T11:38:19.070Z,65
2017-08-13T11:39:20.035Z,60
2017-08-13T11:40:20.066Z,55
2017-08-13T11:41:20.039Z,55
2017-08-13T11:42:20.123Z,55
2017-08-13T11:43:20.176Z,50
2017-08-13T11:44:19.870Z,50
2017-08-13T11:45:20.225Z,45
2017-08-13T11:46:19.547Z,55
2017-08-13T11:47:20.576Z,60
2017-08-13T11:48:19.989Z,55
2017-08-13T11:49:20.317Z,60
2017-08-13T11:50:20.038Z,55
2017-08-13T11:51:20.047Z,50
2017-08-13T11:52:20.091Z,55
2017-08-13T11:53:20.438Z,65
2017-08-13T11:54:20.166Z,75
2017-08-13T11:55:20.814Z,65
2017-08-13T11:56:20.771Z,55
2017-08-13T11:57:20.868Z,55
2017-08-13T11:58:20.576Z,60
2017-08-13T11:59:20.609Z,60
2017-08-13T12:00:20.654Z,65
2017-08-13T12:01:20.655Z,70
2017-08-13T12:02:20.996Z,65
2017-08-13T12:03:20.730Z,65
2017-08-13T12:04:21.057Z,70
2017-08-13T12:05:20.775Z,55
2017-08-13T12:06:20.752Z,50
2017-08-13T12:07:21.151Z,45
2017-08-13T12:08:21.180Z,40
2017-08-13T12:09:20.574Z,40
2017-08-13T12:10:20.918Z,45
2017-08-13T12:11:20.932Z,45
2017-08-13T12:12:20.651Z,40
2017-08-13T12:13:21.307Z,35
2017-08-13T12:14:20.717Z,35
2017-08-13T12:15:20.743Z,35
2017-08-13T12:16:21.387Z,35
2017-08-13T12:17:21.112Z,35
2017-08-13T12:18:20.524Z,40
2017-08-13T12:19:21.170Z,40
2017-08-13T12:20:20.918Z,40
2017-08-13T12:21:21.831Z,35
2017-08-13T12:22:21.259Z,35
2017-08-13T12:23:21.608Z,30
2017-08-13T12:24:21.021Z,30
2017-08-13T12:25:21.334Z,30
2017-08-13T12:26:21.686Z,30
2017-08-13T12:27:21.403Z,25
2017-08-13T12:28:21.420Z,25
2017-08-13T12:29:21.158Z,25
2017-08-13T12:30:21.793Z,30
2017-08-13T12:31:22.113Z,40
2017-08-13T12:32:21.531Z,45
2017-08-13T12:33:21.882Z,45
2017-08-13T12:34:20.961Z,55
2017-08-13T12:35:21.620Z,50
2017-08-13T12:36:22.266Z,50
2017-08-13T12:37:21.983Z,45
2017-08-13T12:38:21.384Z,45
2017-08-13T12:39:21.737Z,40
2017-08-13T12:40:21.755Z,40
2017-08-13T12:41:22.110Z,45
2017-08-13T12:42:22.127Z,40
2017-08-13T12:43:21.542Z,40
2017-08-13T12:44:22.179Z,40
2017-08-13T12:45:21.903Z,50
2017-08-13T12:46:21.302Z,50
2017-08-13T12:47:22.572Z,45
2017-08-13T12:48:21.675Z,50
2017-08-13T12:49:22.018Z,50
2017-08-13T12:50:22.034Z,50
2017-08-13T12:51:22.080Z,50
2017-08-13T12:52:22.390Z,60
2017-08-13T12:53:22.137Z,60
2017-08-13T12:54:22.462Z,65
2017-08-13T12:55:22.493Z,95
2017-08-13T12:56:22.215Z,130
2017-08-13T12:57:22.491Z,125
2017-08-13T12:58:22.751Z,115
2017-08-13T12:59:21.697Z,100
2017-08-13T13:00:22.314Z,105
2017-08-13T13:01:22.038Z,115
2017-08-13T13:02:22.364Z,120
2017-08-13T13:03:22.712Z,125
2017-08-13T13:04:22.444Z,130
2017-08-13T13:05:22.150Z,130
2017-08-13T13:06:22.827Z,135
2017-08-13T13:07:22.823Z,125
2017-08-13T13:08:22.567Z,90
2017-08-13T13:09:22.264Z,100
2017-08-13T13:10:22.294Z,70
2017-08-13T13:11:22.339Z,100
2017-08-13T13:12:22.655Z,85
2017-08-13T13:13:23.013Z,60
2017-08-13T13:14:22.728Z,50
2017-08-13T13:15:22.821Z,45
2017-08-13T13:16:22.469Z,40
2017-08-13T13:17:22.483Z,35
2017-08-13T13:18:22.524Z,35
2017-08-13T13:19:21.920Z,40
2017-08-13T13:20:22.274Z,35
2017-08-13T13:21:22.931Z,35
2017-08-13T13:22:22.939Z,35
2017-08-13T13:23:22.988Z,40
2017-08-13T13:24:23.013Z,40
2017-08-13T13:25:23.353Z,50
2017-08-13T13:26:23.065Z,45
2017-08-13T13:27:22.724Z,35
2017-08-13T13:28:23.124Z,35
2017-08-13T13:29:23.478Z,30
2017-08-13T13:30:22.557Z,30
2017-08-13T13:31:23.550Z,25
2017-08-13T13:32:23.839Z,25
2017-08-13T13:33:22.663Z,30
2017-08-13T13:34:23.008Z,25
2017-08-13T13:35:23.322Z,25
2017-08-13T13:36:23.346Z,25
2017-08-13T13:37:23.310Z,25
2017-08-13T13:38:23.399Z,25
2017-08-13T13:39:23.473Z,30
2017-08-13T13:40:23.509Z,35
2017-08-13T13:41:23.839Z,35
2017-08-13T13:42:23.762Z,30
2017-08-13T13:43:23.856Z,30
2017-08-13T13:44:23.266Z,40
2017-08-13T13:45:22.985Z,50
2017-08-13T13:46:23.946Z,50
2017-08-13T13:47:23.607Z,35
2017-08-13T13:48:23.679Z,30
2017-08-13T13:49:24.040Z,45
2017-08-13T13:50:23.119Z,55
2017-08-13T13:51:24.085Z,65
2017-08-13T13:52:24.123Z,65
2017-08-13T13:53:23.827Z,70
2017-08-13T13:54:23.229Z,60
2017-08-13T13:55:23.597Z,50
2017-08-13T13:56:24.227Z,45
2017-08-13T13:57:24.239Z,45
2017-08-13T13:58:23.964Z,55
2017-08-13T13:59:24.001Z,70
2017-08-13T14:00:24.334Z,65
2017-08-13T14:01:24.058Z,85
2017-08-13T14:02:24.416Z,105
2017-08-13T14:03:23.492Z,80
2017-08-13T14:04:24.156Z,75
2017-08-13T14:05:24.169Z,90
2017-08-13T14:06:23.882Z,145
2017-08-13T14:07:24.847Z,100
2017-08-13T14:08:24.283Z,90
2017-08-13T14:09:23.965Z,100
2017-08-13T14:10:24.621Z,100
2017-08-13T14:11:24.423Z,35
2017-08-13T14:12:24.662Z,115
2017-08-13T14:13:24.116Z,145
2017-08-13T14:14:24.119Z,115
2017-08-13T14:15:24.765Z,95
2017-08-13T14:16:24.481Z,95
2017-08-13T14:17:25.099Z,95
2017-08-13T14:18:24.545Z,95
2017-08-13T14:19:24.269Z,95
2017-08-13T14:20:24.927Z,95
2017-08-13T14:21:24.631Z,95
2017-08-13T14:22:24.915Z,90
2017-08-13T14:23:25.000Z,90
2017-08-13T14:24:25.037Z,90
2017-08-13T14:25:24.753Z,90
2017-08-13T14:26:24.779Z,95
2017-08-13T14:27:25.064Z,100
2017-08-13T14:28:25.144Z,105